Time;durP1;ratioP1;P1;durP2;ratioP2;P2;SDS_P1;SDS_P2;PMS_P1;PMS_P2;Temp;Humidity;BMP_temperature;BMP_pressure;BME280_temperature;BME280_humidity;BME280_pressure;Samples;Min_cycle;Max_cycle;Signal;HPM_P1;HPM_P2
2021/10/16 00:00:47;;;;;;;10.85;6.35;;;;;;;10.79;74.04;96556.31;5110188;28;20058;-73
2021/10/16 00:03:14;;;;;;;9.75;6.22;;;;;;;10.76;74.11;96556.97;5108845;27;20044;-73
2021/10/16 00:05:40;;;;;;;9.43;6.10;;;;;;;10.74;74.26;96553.75;5110104;27;20044;-75
2021/10/16 00:08:07;;;;;;;11.90;7.07;;;;;;;10.71;74.64;96566.88;5108727;28;20047;-73
2021/10/16 00:10:33;;;;;;;8.95;6.32;;;;;;;10.69;74.50;96558.19;5109882;27;20059;-73
2021/10/16 00:13:00;;;;;;;10.07;6.50;;;;;;;10.67;74.65;96554.19;5109866;27;20039;-73
2021/10/16 00:15:27;;;;;;;13.77;6.78;;;;;;;10.61;75.11;96558.97;5108761;28;20043;-73
2021/10/16 00:17:55;;;;;;;10.98;6.85;;;;;;;10.54;75.08;96555.88;5109592;28;20051;-74
2021/10/16 00:20:22;;;;;;;9.45;6.05;;;;;;;10.47;74.89;96562.91;5108068;28;20557;-73
2021/10/16 00:22:48;;;;;;;9.45;6.50;;;;;;;10.39;75.24;96562.56;5109952;28;20562;-73
2021/10/16 00:25:15;;;;;;;12.73;6.60;;;;;;;10.34;75.22;96564.59;5107864;28;20040;-74
2021/10/16 00:27:41;;;;;;;9.48;6.63;;;;;;;10.31;75.16;96557.03;5109898;28;20047;-75
2021/10/16 00:30:09;;;;;;;9.52;6.53;;;;;;;10.25;75.13;96561.03;5108190;28;20043;-73
2021/10/16 00:32:35;;;;;;;11.15;6.50;;;;;;;10.15;74.73;96565.56;5109095;28;20082;-73
2021/10/16 00:35:04;;;;;;;9.70;6.28;;;;;;;10.08;74.77;96564.41;5108674;28;20406;-73
2021/10/16 00:37:30;;;;;;;10.10;6.82;;;;;;;10.05;74.54;96560.38;5108928;27;20490;-73
2021/10/16 00:39:57;;;;;;;11.23;7.30;;;;;;;10.04;74.86;96561.47;5108941;27;20048;-73
2021/10/16 00:42:24;;;;;;;10.27;6.93;;;;;;;10.03;75.32;96567.25;5108162;27;20040;-74
2021/10/16 00:44:50;;;;;;;12.25;7.30;;;;;;;10.01;75.35;96567.53;5109588;28;20043;-73
2021/10/16 00:47:17;;;;;;;9.95;7.20;;;;;;;10.02;74.95;96563.69;5107652;28;20491;-73
2021/10/16 00:49:43;;;;;;;12.95;7.07;;;;;;;10.01;75.26;96559.38;5109570;28;20054;-73
2021/10/16 00:52:11;;;;;;;10.50;7.15;;;;;;;9.99;75.69;96561.59;5107692;28;20664;-73
2021/10/16 00:54:37;;;;;;;14.18;7.85;;;;;;;9.99;75.64;96561.59;5109238;28;20047;-73
2021/10/16 00:57:04;;;;;;;12.75;8.02;;;;;;;9.96;75.59;96564.94;5105825;28;20047;-74
2021/10/16 00:59:31;;;;;;;14.75;8.40;;;;;;;9.97;75.71;96565.72;5108462;28;20043;-73
2021/10/16 01:01:58;;;;;;;9.60;7.03;;;;;;;9.97;76.04;96558.41;5108315;28;20043;-73
2021/10/16 01:04:24;;;;;;;10.32;6.57;;;;;;;10.02;75.85;96560.16;5107757;28;20047;-73
2021/10/16 01:06:51;;;;;;;10.02;7.03;;;;;;;10.03;75.75;96557.16;5108482;28;20036;-73
2021/10/16 01:09:20;;;;;;;14.82;6.60;;;;;;;10.04;75.31;96561.47;5107623;28;20047;-74
2021/10/16 01:11:50;;;;;;;12.80;7.72;;;;;;;10.02;75.32;96563.69;5108427;28;20043;-74
2021/10/16 01:14:17;;;;;;;13.45;7.40;;;;;;;10.00;75.65;96557.78;5107584;28;20848;-75
2021/10/16 01:16:45;;;;;;;12.52;7.53;;;;;;;9.94;75.69;96557.09;5108585;28;20051;-76
2021/10/16 01:19:14;;;;;;;11.25;7.43;;;;;;;9.91;75.61;96557.69;5106416;28;20050;-73
2021/10/16 01:21:43;;;;;;;11.30;7.10;;;;;;;9.89;75.83;96550.97;5107477;28;20058;-73
2021/10/16 01:24:11;;;;;;;12.00;7.38;;;;;;;9.87;76.29;96547.75;5106932;28;20048;-74
2021/10/16 01:26:40;;;;;;;13.93;7.75;;;;;;;9.85;76.35;96552.69;5107958;28;20426;-73
2021/10/16 01:29:08;;;;;;;11.70;7.75;;;;;;;9.88;76.43;96560.25;5107867;28;20078;-73
2021/10/16 01:31:36;;;;;;;13.98;7.05;;;;;;;9.88;76.44;96554.81;5107402;28;20055;-73
2021/10/16 01:34:03;;;;;;;11.40;7.60;;;;;;;9.90;76.38;96547.13;5108344;28;20043;-72
2021/10/16 01:36:39;;;;;;;14.50;7.93;;;;;;;9.89;76.54;96545.53;5107750;28;20047;-72
2021/10/16 01:39:08;;;;;;;12.27;7.90;;;;;;;9.89;76.78;96545.53;5108223;28;20048;-73
2021/10/16 01:41:35;;;;;;;12.18;7.32;;;;;;;9.89;76.69;96540.09;5107722;28;20077;-73
2021/10/16 01:44:03;;;;;;;12.50;8.32;;;;;;;9.89;76.51;96540.09;5107367;28;20703;-71
2021/10/16 01:46:29;;;;;;;12.15;7.68;;;;;;;9.91;76.17;96546.00;5106892;28;20593;-73
2021/10/16 01:48:56;;;;;;;11.25;7.88;;;;;;;9.95;76.13;96544.28;5107783;28;20065;-73
2021/10/16 01:51:22;;;;;;;12.30;7.18;;;;;;;9.99;76.09;96542.56;5107540;28;20067;-73
2021/10/16 01:53:49;;;;;;;11.68;7.30;;;;;;;9.99;76.07;96544.47;5107477;28;20562;-74
2021/10/16 01:56:17;;;;;;;12.27;7.95;;;;;;;10.00;75.75;96540.66;5107862;28;20051;-73
2021/10/16 01:58:44;;;;;;;9.82;6.85;;;;;;;9.98;75.72;96546.41;5107361;28;20052;-74
2021/10/16 02:01:10;;;;;;;11.27;7.22;;;;;;;9.94;75.74;96539.97;5107809;28;20047;-74
2021/10/16 02:03:37;;;;;;;12.88;7.53;;;;;;;9.89;76.47;96540.88;5107821;28;20040;-74
2021/10/16 02:06:03;;;;;;;10.73;7.57;;;;;;;9.89;76.59;96535.44;5107650;28;20039;-74
2021/10/16 02:08:30;;;;;;;12.57;7.70;;;;;;;9.90;76.26;96536.25;5107766;28;20047;-73
2021/10/16 02:10:56;;;;;;;12.07;8.05;;;;;;;9.89;76.33;96540.09;5110950;28;20047;-73
2021/10/16 02:13:24;;;;;;;12.98;7.90;;;;;;;9.88;76.10;96535.75;5111687;28;20051;-74
2021/10/16 02:15:50;;;;;;;11.98;8.00;;;;;;;9.82;76.38;96539.72;5111328;27;20044;-73
2021/10/16 02:18:17;;;;;;;11.48;8.00;;;;;;;9.80;77.06;96533.78;5111816;28;20499;-73
2021/10/16 02:20:43;;;;;;;14.35;8.02;;;;;;;9.83;77.10;96538.59;5111163;28;20803;-74
2021/10/16 02:23:10;;;;;;;12.45;8.00;;;;;;;9.89;77.07;96545.53;5111526;28;20040;-73
2021/10/16 02:25:36;;;;;;;13.00;8.07;;;;;;;9.92;76.60;96539.47;5111086;27;20129;-73
2021/10/16 02:28:03;;;;;;;14.13;8.80;;;;;;;9.92;76.23;96540.28;5110831;27;20052;-73
2021/10/16 02:30:31;;;;;;;12.38;8.48;;;;;;;9.90;76.48;96541.69;5111140;27;20043;-75
2021/10/16 02:32:58;;;;;;;15.07;8.57;;;;;;;9.85;76.77;96539.09;5111473;27;20053;-74
2021/10/16 02:35:24;;;;;;;12.95;8.15;;;;;;;9.80;77.16;96540.00;5110771;27;20074;-73
2021/10/16 02:37:51;;;;;;;9.90;7.05;;;;;;;9.82;77.25;96539.72;5111277;27;20417;-75
2021/10/16 02:40:18;;;;;;;11.18;7.38;;;;;;;9.83;77.18;96541.31;5111019;27;20540;-73
2021/10/16 02:42:44;;;;;;;12.98;8.18;;;;;;;9.86;77.33;96540.69;5110611;27;20134;-73
2021/10/16 02:45:11;;;;;;;16.42;8.43;;;;;;;9.83;77.35;96552.22;5111267;27;20046;-73
2021/10/16 02:47:39;;;;;;;13.40;9.02;;;;;;;9.76;77.51;96546.38;5110714;27;20514;-73
2021/10/16 02:50:06;;;;;;;15.15;9.00;;;;;;;9.71;78.07;96552.75;5111259;27;20048;-73
2021/10/16 02:52:32;;;;;;;12.07;8.45;;;;;;;9.73;77.82;96549.72;5111257;27;20406;-73
2021/10/16 02:54:58;;;;;;;12.52;8.60;;;;;;;9.71;77.72;96549.22;5111374;27;20047;-74
2021/10/16 02:57:25;;;;;;;14.05;9.40;;;;;;;9.67;77.51;96546.31;5110202;27;20040;-73
2021/10/16 02:59:51;;;;;;;17.67;9.45;;;;;;;9.67;78.05;96552.56;5111125;27;20073;-73
2021/10/16 03:02:18;;;;;;;14.77;9.38;;;;;;;9.64;77.56;96550.44;5110793;28;20816;-73
2021/10/16 03:04:46;;;;;;;16.67;10.30;;;;;;;9.63;77.62;96548.84;5110412;28;20044;-75
2021/10/16 03:07:12;;;;;;;21.52;9.63;;;;;;;9.71;77.06;96549.22;5110454;28;20044;-74
2021/10/16 03:09:39;;;;;;;14.93;9.27;;;;;;;9.72;77.21;96553.56;5111138;27;20044;-74
2021/10/16 03:12:06;;;;;;;13.98;9.43;;;;;;;9.74;77.38;96548.59;5110760;28;20044;-73
2021/10/16 03:14:32;;;;;;;15.45;9.80;;;;;;;9.75;77.42;96551.00;5110350;27;20044;-73
2021/10/16 03:16:59;;;;;;;16.38;10.07;;;;;;;9.74;77.63;96548.59;5110676;28;20042;-73
2021/10/16 03:19:25;;;;;;;14.15;9.43;;;;;;;9.77;77.14;96546.09;5110273;28;20044;-73
2021/10/16 03:21:53;;;;;;;21.60;10.05;;;;;;;9.82;76.71;96548.69;5109800;27;20044;-73
2021/10/16 03:24:20;;;;;;;17.63;9.75;;;;;;;9.86;76.60;96548.84;5109701;28;20039;-73
2021/10/16 03:26:46;;;;;;;14.95;9.93;;;;;;;9.89;76.25;96556.41;5105030;27;20055;-73
2021/10/16 03:29:13;;;;;;;14.48;10.05;;;;;;;9.84;76.66;96556.53;5089804;28;20062;-73
2021/10/16 03:31:39;;;;;;;17.20;10.63;;;;;;;9.77;76.62;96556.16;5088357;28;20071;-73
2021/10/16 03:34:06;;;;;;;17.77;9.75;;;;;;;9.79;76.61;96559.38;5090204;28;20568;-73
2021/10/16 03:36:33;;;;;;;17.13;10.95;;;;;;;9.84;76.25;96554.59;5089421;28;20051;-73
2021/10/16 03:39:01;;;;;;;17.08;10.35;;;;;;;9.79;76.50;96559.38;5090511;28;20044;-73
2021/10/16 03:41:27;;;;;;;16.23;10.40;;;;;;;9.77;76.48;96558.88;5088872;28;20384;-73
2021/10/16 03:43:54;;;;;;;17.42;10.55;;;;;;;9.77;76.44;96558.88;5089959;28;20055;-73
2021/10/16 03:46:20;;;;;;;18.60;10.50;;;;;;;9.76;76.71;96559.97;5089045;28;20527;-74
2021/10/16 03:48:47;;;;;;;17.90;10.55;;;;;;;9.73;76.66;96561.41;5089807;28;20048;-73
2021/10/16 03:51:14;;;;;;;22.73;11.07;;;;;;;9.74;76.68;96563.00;5089252;28;20040;-73
2021/10/16 03:53:40;;;;;;;17.73;10.77;;;;;;;9.74;76.71;96562.19;5089217;28;20696;-73
2021/10/16 03:56:08;;;;;;;17.95;11.43;;;;;;;9.77;76.77;96561.59;5092690;27;20048;-73
2021/10/16 03:58:34;;;;;;;17.73;10.35;;;;;;;9.78;76.25;96565.94;5109354;28;20050;-73
2021/10/16 04:01:02;;;;;;;19.05;11.13;;;;;;;9.75;76.51;96553.72;5109869;28;20051;-73
2021/10/16 04:03:30;;;;;;;22.25;11.30;;;;;;;9.77;76.79;96556.16;5108895;28;20039;-73
2021/10/16 04:05:56;;;;;;;18.88;11.48;;;;;;;9.77;76.79;96556.97;5109744;28;20039;-73
2021/10/16 04:08:23;;;;;;;18.58;11.40;;;;;;;9.77;76.97;96558.88;5109621;28;20043;-72
2021/10/16 04:10:50;;;;;;;19.40;11.70;;;;;;;9.79;76.59;96562.09;5109514;28;20047;-73
2021/10/16 04:13:18;;;;;;;21.92;12.07;;;;;;;9.80;76.64;96560.97;5109079;27;20052;-72
2021/10/16 04:15:44;;;;;;;18.63;11.90;;;;;;;9.78;76.81;96572.16;5108132;27;20556;-73
2021/10/16 04:18:11;;;;;;;20.63;11.63;;;;;;;9.77;76.94;96564.31;5109100;28;20051;-75
2021/10/16 04:20:38;;;;;;;20.88;11.75;;;;;;;9.77;76.76;96558.88;5108052;27;20521;-73
2021/10/16 04:23:04;;;;;;;19.98;11.70;;;;;;;9.79;76.49;96556.66;5108819;27;20051;-72
2021/10/16 04:25:31;;;;;;;19.30;11.52;;;;;;;9.77;76.48;96561.59;5108767;28;20050;-75
2021/10/16 04:27:58;;;;;;;18.55;11.57;;;;;;;9.75;76.80;96566.53;5109377;27;20043;-73
2021/10/16 04:30:26;;;;;;;16.58;11.85;;;;;;;9.74;76.83;96559.47;5108443;27;20047;-72
2021/10/16 04:32:52;;;;;;;20.63;12.35;;;;;;;9.70;77.32;96553.03;5108297;27;20051;-73
2021/10/16 04:35:19;;;;;;;18.90;11.52;;;;;;;9.66;76.98;96552.88;5108386;27;20050;-73
2021/10/16 04:37:47;;;;;;;19.00;11.98;;;;;;;9.67;77.10;96562.63;5108542;27;20051;-73
2021/10/16 04:40:16;;;;;;;18.58;11.73;;;;;;;9.69;77.04;96563.13;5108633;27;20048;-73
2021/10/16 04:42:43;;;;;;;22.08;11.57;;;;;;;9.74;77.16;96559.47;5108263;27;20071;-73
2021/10/16 04:45:11;;;;;;;21.98;12.35;;;;;;;9.75;77.20;96563.81;5108562;27;20046;-73
2021/10/16 04:47:39;;;;;;;23.05;12.30;;;;;;;9.72;77.40;96557.06;5108173;27;20058;-73
2021/10/16 04:50:06;;;;;;;16.77;11.10;;;;;;;9.74;77.39;96564.91;5108756;27;20050;-73
2021/10/16 04:52:33;;;;;;;18.73;11.13;;;;;;;9.71;77.59;96560.91;5108309;27;20040;-75
2021/10/16 04:54:59;;;;;;;18.92;12.13;;;;;;;9.71;77.22;96558.19;5108630;27;20051;-73
2021/10/16 04:57:26;;;;;;;19.75;11.43;;;;;;;9.68;77.50;96562.31;5108054;27;20599;-73
2021/10/16 04:59:52;;;;;;;20.67;12.07;;;;;;;9.70;77.37;96563.91;5108432;28;20046;-73
2021/10/16 05:02:19;;;;;;;23.02;12.27;;;;;;;9.73;77.53;96566.03;5107121;28;20047;-73
2021/10/16 05:04:46;;;;;;;18.42;11.60;;;;;;;9.69;77.56;96563.13;5108698;28;20047;-73
2021/10/16 05:07:13;;;;;;;17.73;10.95;;;;;;;9.63;77.43;96565.16;5108379;28;20039;-73
2021/10/16 05:09:39;;;;;;;18.02;10.82;;;;;;;9.61;77.45;96561.94;5108341;28;20044;-73
2021/10/16 05:12:06;;;;;;;18.23;11.25;;;;;;;9.62;77.55;96555.41;5108699;27;20054;-73
2021/10/16 05:14:33;;;;;;;20.48;12.23;;;;;;;9.61;76.85;96556.50;5108218;28;20051;-72
2021/10/16 05:16:59;;;;;;;21.00;12.75;;;;;;;9.57;76.89;96554.72;5108499;28;20048;-73
2021/10/16 05:19:26;;;;;;;19.80;12.52;;;;;;;9.53;77.37;96554.50;5107998;28;20044;-74
2021/10/16 05:21:53;;;;;;;20.90;12.75;;;;;;;9.54;77.54;96558.81;5108061;28;20058;-72
2021/10/16 05:24:20;;;;;;;19.35;12.55;;;;;;;9.58;77.55;96553.59;5107993;28;20051;-73
2021/10/16 05:26:46;;;;;;;20.50;12.27;;;;;;;9.63;77.65;96559.72;5107820;27;20039;-73
2021/10/16 05:29:13;;;;;;;21.50;12.88;;;;;;;9.66;76.88;96564.56;5108045;28;20047;-73
2021/10/16 05:31:39;;;;;;;21.08;11.95;;;;;;;9.66;77.07;96564.56;5107289;28;20058;-73
2021/10/16 05:34:06;;;;;;;22.65;12.70;;;;;;;9.64;77.65;96560.50;5108304;28;20040;-73
2021/10/16 05:36:33;;;;;;;20.02;11.88;;;;;;;9.62;77.72;96565.47;5107378;28;20760;-73
2021/10/16 05:39:00;;;;;;;19.08;11.48;;;;;;;9.64;77.16;96566.75;5108766;28;20057;-73
2021/10/16 05:41:27;;;;;;;21.13;12.82;;;;;;;9.66;77.50;96564.56;5107500;28;20785;-72
2021/10/16 05:43:54;;;;;;;24.42;12.70;;;;;;;9.60;77.18;96567.66;5108234;28;20104;-74
2021/10/16 05:46:20;;;;;;;23.98;12.10;;;;;;;9.56;77.77;96562.06;5106995;28;20558;-73
2021/10/16 05:48:47;;;;;;;20.10;12.60;;;;;;;9.56;77.96;96572.94;5107747;28;20039;-74
2021/10/16 05:51:13;;;;;;;19.33;11.95;;;;;;;9.60;78.07;96575.81;5107687;28;20043;-73
2021/10/16 05:53:40;;;;;;;20.98;12.60;;;;;;;9.62;77.75;96577.16;5107726;28;20066;-72
2021/10/16 05:56:08;;;;;;;18.70;11.10;;;;;;;9.64;78.02;96577.63;5107697;28;20050;-73
2021/10/16 05:58:36;;;;;;;19.77;11.13;;;;;;;9.68;77.68;96578.63;5107430;28;20105;-72
2021/10/16 06:01:03;;;;;;;17.05;11.32;;;;;;;9.68;78.23;96584.06;5107941;28;20052;-71
2021/10/16 06:03:31;;;;;;;16.70;10.65;;;;;;;9.63;77.84;96580.66;5106909;28;20054;-74
2021/10/16 06:05:58;;;;;;;16.75;10.80;;;;;;;9.56;77.86;96589.25;5107691;28;20391;-72
2021/10/16 06:08:24;;;;;;;16.98;11.05;;;;;;;9.52;78.21;96585.53;5107316;28;20711;-73
2021/10/16 06:10:51;;;;;;;16.90;11.10;;;;;;;9.51;78.83;96594.00;5106565;28;20042;-72
2021/10/16 06:13:19;;;;;;;17.50;11.43;;;;;;;9.50;78.96;96593.19;5107114;28;20521;-73
2021/10/16 06:15:45;;;;;;;18.02;11.57;;;;;;;9.49;78.98;96597.00;5107142;28;20054;-73
2021/10/16 06:18:13;;;;;;;21.02;11.45;;;;;;;9.42;79.15;96596.63;5107298;28;20059;-73
2021/10/16 06:20:40;;;;;;;19.52;11.85;;;;;;;9.42;79.45;96604.78;5107017;28;20048;-73
2021/10/16 06:23:07;;;;;;;20.67;11.95;;;;;;;9.46;79.71;96605.78;5107595;28;20043;-73
2021/10/16 06:25:34;;;;;;;19.65;11.95;;;;;;;9.49;79.65;96607.06;5107060;28;20499;-74
2021/10/16 06:28:00;;;;;;;22.42;12.60;;;;;;;9.56;79.23;96615.63;5107707;28;20066;-72
2021/10/16 06:30:28;;;;;;;23.73;13.20;;;;;;;9.60;78.98;96625.56;5107041;28;20050;-73
2021/10/16 06:32:54;;;;;;;21.25;13.43;;;;;;;9.59;78.86;96623.97;5107277;28;20059;-73
2021/10/16 06:35:21;;;;;;;20.33;13.52;;;;;;;9.58;79.25;96619.63;5107031;28;20055;-73
2021/10/16 06:37:47;;;;;;;23.27;14.25;;;;;;;9.56;79.54;96621.88;5106174;28;20073;-73
2021/10/16 06:40:14;;;;;;;23.00;14.43;;;;;;;9.62;79.33;96628.81;5107573;28;20040;-72
2021/10/16 06:42:40;;;;;;;24.25;13.73;;;;;;;9.70;79.07;96626.47;5106829;28;20047;-73
2021/10/16 06:45:08;;;;;;;21.83;14.27;;;;;;;9.75;78.58;96624.44;5107543;28;20410;-73
2021/10/16 06:47:35;;;;;;;25.63;13.77;;;;;;;9.80;79.05;96628.97;5107116;28;20040;-74
2021/10/16 06:50:02;;;;;;;22.73;14.13;;;;;;;9.87;77.96;96629.38;5107535;28;20067;-72
2021/10/16 06:52:29;;;;;;;22.13;13.38;;;;;;;9.93;77.68;96630.84;5106906;28;20479;-73
2021/10/16 06:54:55;;;;;;;20.90;12.55;;;;;;;9.96;77.80;96632.13;5107241;28;20051;-73
2021/10/16 06:57:22;;;;;;;20.15;12.30;;;;;;;10.01;78.00;96638.28;5108672;28;20052;-73
2021/10/16 06:59:48;;;;;;;18.52;12.45;;;;;;;10.02;77.76;96648.03;5111003;27;20052;-73
2021/10/16 07:02:15;;;;;;;17.83;11.82;;;;;;;9.98;77.79;96641.63;5110573;28;20050;-73
2021/10/16 07:04:43;;;;;;;20.13;12.20;;;;;;;10.03;77.65;96644.22;5111069;28;20039;-74
2021/10/16 07:07:09;;;;;;;20.83;11.98;;;;;;;10.10;77.40;96644.59;5110369;28;20054;-73
2021/10/16 07:09:36;;;;;;;21.55;11.40;;;;;;;10.17;77.17;96644.16;5110388;27;20048;-72
2021/10/16 07:12:03;;;;;;;18.27;12.13;;;;;;;10.19;77.49;96645.47;5110953;28;20902;-72
2021/10/16 07:14:30;;;;;;;18.52;11.57;;;;;;;10.27;76.94;96645.88;5110222;27;20702;-73
2021/10/16 07:16:56;;;;;;;21.98;11.85;;;;;;;10.31;76.60;96644.16;5110899;27;20521;-73
2021/10/16 07:19:23;;;;;;;15.93;11.15;;;;;;;10.32;76.50;96651.19;5109913;28;20089;-73
2021/10/16 07:21:50;;;;;;;18.88;11.23;;;;;;;10.35;76.42;96653.31;5110547;28;20044;-73
2021/10/16 07:24:17;;;;;;;16.83;11.15;;;;;;;10.39;76.36;96657.03;5110118;27;20036;-73
2021/10/16 07:26:44;;;;;;;17.98;11.27;;;;;;;10.43;76.14;96652.56;5110060;27;20048;-73
2021/10/16 07:29:11;;;;;;;21.30;11.38;;;;;;;10.43;76.49;96652.56;5110229;27;20465;-73
2021/10/16 07:31:38;;;;;;;20.48;12.05;;;;;;;10.40;76.28;96656.72;5109732;27;20055;-73
2021/10/16 07:34:05;;;;;;;18.88;11.30;;;;;;;10.38;76.30;96653.47;5110800;27;20058;-74
2021/10/16 07:36:34;;;;;;;19.70;11.73;;;;;;;10.43;76.47;96656.06;5109685;27;20050;-73
2021/10/16 07:39:03;;;;;;;20.85;11.80;;;;;;;10.46;76.35;96657.41;5110885;27;20151;-74
2021/10/16 07:41:29;;;;;;;18.85;11.80;;;;;;;10.57;76.15;96664.19;5109385;27;20039;-74
2021/10/16 07:43:56;;;;;;;18.95;11.93;;;;;;;10.70;76.31;96662.50;5110418;27;20043;-74
2021/10/16 07:46:22;;;;;;;21.98;11.60;;;;;;;10.81;76.18;96665.81;5109170;27;20486;-74
2021/10/16 07:48:49;;;;;;;18.48;11.35;;;;;;;10.83;75.91;96667.09;5109786;27;20051;-74
2021/10/16 07:51:16;;;;;;;17.05;10.68;;;;;;;10.90;76.02;96666.63;5109383;27;20043;-75
2021/10/16 07:53:43;;;;;;;21.08;10.65;;;;;;;10.98;75.74;96663.16;5109236;27;20051;-73
2021/10/16 07:56:10;;;;;;;17.23;11.15;;;;;;;11.01;74.42;96667.97;5109926;27;20054;-74
2021/10/16 07:58:39;;;;;;;15.48;10.40;;;;;;;11.36;75.04;96658.03;5109501;28;20058;-73
2021/10/16 08:01:06;;;;;;;17.10;9.82;;;;;;;11.97;70.86;96655.50;5109612;28;20131;-73
2021/10/16 08:03:32;;;;;;;13.93;9.15;;;;;;;12.22;69.75;96657.44;5109153;28;20565;-75
2021/10/16 08:05:59;;;;;;;13.77;8.90;;;;;;;12.20;69.34;96669.78;5109944;28;20062;-73
2021/10/16 08:08:25;;;;;;;12.45;7.75;;;;;;;12.21;69.51;96666.72;5109237;28;20043;-74
2021/10/16 08:10:52;;;;;;;14.68;8.32;;;;;;;12.22;67.82;96668.34;5109321;28;20040;-73
2021/10/16 08:13:20;;;;;;;10.63;7.00;;;;;;;12.18;67.96;96661.94;5109188;28;20728;-74
2021/10/16 08:15:46;;;;;;;13.15;8.05;;;;;;;12.17;68.58;96673.97;5108883;27;20053;-74
2021/10/16 08:18:13;;;;;;;12.20;6.95;;;;;;;12.21;68.14;96672.19;5109182;27;20047;-74
2021/10/16 08:20:40;;;;;;;14.10;7.40;;;;;;;12.23;68.45;96672.69;5108519;28;20043;-74
2021/10/16 08:23:07;;;;;;;12.15;6.63;;;;;;;12.24;68.22;96666.09;5109225;28;20044;-73
2021/10/16 08:25:34;;;;;;;11.25;7.68;;;;;;;12.25;68.97;96675.88;5108797;28;20409;-73
2021/10/16 08:28:00;;;;;;;12.35;7.35;;;;;;;12.25;68.23;96675.88;5109427;27;20040;-74
2021/10/16 08:30:28;;;;;;;11.02;6.80;;;;;;;12.26;68.42;96674.75;5108521;28;20525;-74
2021/10/16 08:32:55;;;;;;;11.23;7.45;;;;;;;12.32;69.16;96675.44;5109055;27;20051;-74
2021/10/16 08:35:21;;;;;;;11.00;6.90;;;;;;;12.36;68.66;96678.31;5108587;28;20509;-73
2021/10/16 08:37:48;;;;;;;13.43;7.70;;;;;;;12.43;68.75;96675.91;5108793;28;20048;-74
2021/10/16 08:40:14;;;;;;;10.55;7.38;;;;;;;12.44;68.45;96680.25;5108964;28;20044;-74
2021/10/16 08:42:41;;;;;;;14.32;8.20;;;;;;;12.47;68.70;96685.03;5108587;28;20043;-74
2021/10/16 08:45:08;;;;;;;12.98;7.85;;;;;;;12.47;68.75;96685.84;5108694;27;20078;-74
2021/10/16 08:47:37;;;;;;;10.98;7.22;;;;;;;12.57;68.18;96679.25;5108326;28;20044;-74
2021/10/16 08:50:06;;;;;;;11.95;7.65;;;;;;;12.60;67.78;96683.28;5108680;27;20044;-74
2021/10/16 08:52:32;;;;;;;9.77;7.10;;;;;;;12.55;67.93;96692.44;5108506;28;20051;-74
2021/10/16 08:55:00;;;;;;;11.63;7.85;;;;;;;12.66;68.34;96691.00;5107928;28;20047;-74
2021/10/16 08:57:31;;;;;;;11.18;7.75;;;;;;;12.85;68.18;96689.84;5107968;28;20039;-74
2021/10/16 08:59:57;;;;;;;12.85;7.65;;;;;;;13.08;66.86;96683.03;5108293;28;20050;-74
2021/10/16 09:02:35;;;;;;;9.90;7.28;;;;;;;13.41;67.27;96686.00;5108490;28;20539;-74
2021/10/16 09:05:12;;;;;;;9.95;6.55;;;;;;;13.79;65.09;96682.47;5107766;28;20635;-76
2021/10/16 09:07:38;;;;;;;11.05;7.25;;;;;;;14.04;64.71;96684.25;5109221;28;20414;-74
2021/10/16 09:10:21;;;;;;;11.52;7.40;;;;;;;14.09;64.26;96678.59;5107458;28;20040;-74
2021/10/16 09:12:47;;;;;;;10.75;7.47;;;;;;;14.02;64.09;96672.00;5108843;28;20051;-74
2021/10/16 09:15:22;;;;;;;12.60;8.27;;;;;;;13.99;65.07;96678.13;5107783;28;20044;-75
2021/10/16 09:18:02;;;;;;;10.57;8.10;;;;;;;13.95;65.21;96677.22;5108065;28;20075;-75
2021/10/16 09:20:35;;;;;;;12.85;7.45;;;;;;;13.92;64.19;96678.66;5108096;28;20051;-74
2021/10/16 09:23:06;;;;;;;14.00;8.57;;;;;;;13.88;64.46;96683.19;5107054;28;20522;-73
2021/10/16 09:25:32;;;;;;;11.00;8.10;;;;;;;13.74;64.12;96677.19;5108783;28;20047;-74
2021/10/16 09:28:13;;;;;;;11.55;7.68;;;;;;;13.74;65.00;96682.66;5107762;27;20040;-74
2021/10/16 09:30:44;;;;;;;11.57;8.25;;;;;;;13.83;65.55;96678.75;5108638;27;20042;-75
2021/10/16 09:33:11;;;;;;;11.80;8.00;;;;;;;13.86;65.60;96684.69;5107190;27;20044;-73
2021/10/16 09:35:39;;;;;;;12.70;8.52;;;;;;;13.83;64.64;96676.00;5108502;28;20051;-74
2021/10/16 09:38:06;;;;;;;14.88;8.68;;;;;;;13.90;65.36;96680.16;5107853;27;20044;-75
2021/10/16 09:40:36;;;;;;;12.15;7.70;;;;;;;14.03;65.42;96679.09;5107849;27;20059;-74
2021/10/16 09:43:17;;;;;;;12.38;8.55;;;;;;;14.13;65.81;96684.19;5107881;27;20054;-73
2021/10/16 09:45:45;;;;;;;13.77;8.57;;;;;;;14.22;63.40;96687.66;5107657;27;20048;-74
2021/10/16 09:48:11;;;;;;;11.30;7.97;;;;;;;14.22;64.17;96681.38;5107468;27;20044;-74
2021/10/16 09:50:58;;;;;;;12.90;8.38;;;;;;;14.42;64.46;96679.78;5107901;27;20044;-74
2021/10/16 09:53:24;;;;;;;13.55;8.93;;;;;;;14.56;63.27;96691.28;5107059;27;20036;-74
2021/10/16 09:55:51;;;;;;;12.43;8.20;;;;;;;14.59;62.84;96685.16;5108115;27;20667;-74
2021/10/16 09:58:18;;;;;;;11.00;8.70;;;;;;;14.39;62.33;96683.19;5106825;27;20046;-73
2021/10/16 10:00:45;;;;;;;12.48;8.32;;;;;;;14.35;63.09;96680.31;5108564;27;20047;-73
2021/10/16 10:03:14;;;;;;;12.27;8.13;;;;;;;14.34;63.38;96673.22;5106737;28;20048;-74
2021/10/16 10:05:43;;;;;;;16.27;9.75;;;;;;;14.31;63.72;96671.19;5107997;28;20048;-75
2021/10/16 10:08:15;;;;;;;10.07;8.00;;;;;;;14.26;64.40;96672.16;5106596;27;20756;-74
2021/10/16 10:10:42;;;;;;;12.33;8.27;;;;;;;14.08;63.58;96676.16;5107278;27;20067;-74
2021/10/16 10:13:08;;;;;;;10.70;8.32;;;;;;;13.94;64.29;96668.22;5107315;27;20656;-73
2021/10/16 10:15:35;;;;;;;12.38;8.70;;;;;;;13.98;65.05;96671.06;5107693;27;20047;-74
2021/10/16 10:20:46;;;;;;;11.55;7.97;;;;;;;13.96;64.88;96668.66;5106953;27;20490;-74
2021/10/16 10:23:20;;;;;;;10.98;7.63;;;;;;;14.03;65.21;96668.13;5107533;27;20054;-74
2021/10/16 10:25:46;;;;;;;8.88;7.10;;;;;;;14.22;65.17;96676.72;5105760;28;20140;-74
2021/10/16 10:28:13;;;;;;;12.43;7.80;;;;;;;14.15;63.12;96668.22;5107372;28;20426;-74
2021/10/16 10:30:41;;;;;;;12.93;7.80;;;;;;;14.10;64.12;96674.69;5108101;28;20478;-74
2021/10/16 10:33:21;;;;;;;10.40;6.93;;;;;;;14.08;64.27;96671.47;5109066;28;20057;-73
2021/10/16 10:35:50;;;;;;;10.48;7.22;;;;;;;14.11;64.79;96667.28;5111514;27;20071;-74
2021/10/16 10:38:29;;;;;;;9.70;6.47;;;;;;;14.12;63.82;96671.63;5110250;28;20552;-75
2021/10/16 10:40:55;;;;;;;9.73;7.13;;;;;;;14.20;62.53;96657.09;5111795;27;20124;-75
2021/10/16 10:43:38;;;;;;;10.75;6.65;;;;;;;14.33;64.01;96660.66;5109938;28;20051;-74
2021/10/16 10:46:12;;;;;;;9.85;7.03;;;;;;;14.36;63.83;96660.81;5110826;27;20047;-73
2021/10/16 10:48:43;;;;;;;13.60;9.73;;;;;;;14.39;63.80;96664.81;5111081;28;20546;-73
2021/10/16 10:51:11;;;;;;;8.98;6.55;;;;;;;14.34;63.08;96657.59;5110557;28;20448;-74
2021/10/16 10:53:40;;;;;;;7.57;5.78;;;;;;;14.38;61.44;96654.19;5111230;27;20043;-74
2021/10/16 10:56:21;;;;;;;9.45;7.10;;;;;;;14.50;62.14;96654.28;5109898;27;20067;-73
2021/10/16 10:59:00;;;;;;;9.27;6.63;;;;;;;14.55;61.27;96656.81;5111194;28;20139;-75
2021/10/16 11:02:01;;;;;;;9.02;6.03;;;;;;;14.61;62.33;96656.25;5110196;28;20066;-74
2021/10/16 11:04:52;;;;;;;9.00;5.57;;;;;;;14.60;60.70;96651.91;5109640;27;20116;-74
2021/10/16 11:07:33;;;;;;;8.25;6.38;;;;;;;14.62;61.17;96651.59;5109945;28;20051;-74
2021/10/16 11:10:01;;;;;;;11.38;7.05;;;;;;;14.65;60.31;96650.13;5109836;27;20051;-74
2021/10/16 11:12:33;;;;;;;9.25;6.65;;;;;;;14.65;61.13;96650.91;5110809;28;20044;-74
2021/10/16 11:15:00;;;;;;;9.63;7.32;;;;;;;14.82;63.09;96645.25;5109662;27;20043;-74
2021/10/16 11:17:35;;;;;;;10.15;6.20;;;;;;;14.93;60.74;96644.81;5110159;27;20050;-75
2021/10/16 11:20:05;;;;;;;7.88;6.15;;;;;;;15.03;60.80;96639.72;5109877;28;20458;-74
2021/10/16 11:22:57;;;;;;;8.68;6.50;;;;;;;15.14;59.85;96637.34;5110050;28;20051;-74
2021/10/16 11:25:25;;;;;;;7.57;5.82;;;;;;;14.97;58.04;96640.28;5095089;27;20043;-76
2021/10/16 11:28:03;;;;;;;9.88;6.93;;;;;;;14.78;59.51;96641.59;5109190;27;20414;-74
2021/10/16 11:30:30;;;;;;;9.63;7.05;;;;;;;14.69;61.39;96629.91;5110345;27;20043;-76
2021/10/16 11:33:03;;;;;;;9.43;6.70;;;;;;;14.62;60.66;96621.47;5109738;28;20058;-74